Caledon East, Canada
Current Conditions -  °F | °C
As of 3:00 PM on Saturday 25 Oct 2014 (Local Time) from CYYZ Reporting Station
Broken Clouds Broken Clouds  
Wind Chill: 57°   Ceiling: 4200
Heat Index: 57°   Visibility: 12mi
Dew Point: 50°   Wind: 13mph
Humidity: 77%   Direction: 260°W
Pressure: 29.61"   Gusts: 20mph
Location:  43.87°N, 79.87°W
Report Text: CYYZ 251900Z 26011G17KT 12SM SCT028 BKN042 14/10 A2961 RMK CU3SC4 SLP029 DENSITY ALT 900FT
Loading
Personal Weather Stations






























Interactive Weather Map
Tropical Storm Tracking
New forecast layout! Learn more

10-Day Weather Forecast

Advertisements
Track Severe Weather on mobile